createdAt,value
2019-04-26T00:01:54.830Z,8.03
2019-04-26T00:04:25.742Z,8.10
2019-04-26T00:06:56.542Z,8.17
2019-04-26T00:09:35.277Z,8.37
2019-04-26T00:12:24.005Z,8.00
2019-04-26T00:15:12.610Z,7.73
2019-04-26T00:17:49.746Z,8.00
2019-04-26T00:20:21.088Z,7.87
2019-04-26T00:22:51.850Z,8.30
2019-04-26T00:25:22.829Z,8.87
2019-04-26T00:27:53.298Z,7.83
2019-04-26T00:30:23.900Z,8.50
2019-04-26T00:32:56.573Z,8.23
2019-04-26T00:35:27.196Z,8.53
2019-04-26T00:37:57.899Z,8.53
2019-04-26T00:40:28.328Z,8.33
2019-04-26T00:43:00.852Z,8.47
2019-04-26T00:45:33.816Z,8.13
2019-04-26T00:48:04.831Z,8.23
2019-04-26T00:50:35.835Z,9.80
2019-04-26T00:53:08.384Z,8.50
2019-04-26T00:55:39.307Z,8.90
2019-04-26T00:58:10.358Z,8.63
2019-04-26T01:00:41.044Z,9.10
2019-04-26T01:03:11.538Z,8.70
2019-04-26T01:05:42.426Z,8.47
2019-04-26T01:08:12.974Z,8.30
2019-04-26T01:10:43.501Z,9.30
2019-04-26T01:13:14.136Z,9.57
2019-04-26T01:15:44.792Z,8.93
2019-04-26T01:18:16.707Z,9.83
2019-04-26T01:20:50.131Z,9.23
2019-04-26T01:23:22.954Z,9.87
2019-04-26T01:26:07.240Z,9.93
2019-04-26T01:28:51.880Z,9.30
2019-04-26T01:31:22.616Z,9.43
2019-04-26T01:33:53.296Z,9.27
2019-04-26T01:36:26.501Z,9.83
2019-04-26T01:39:00.806Z,8.93
2019-04-26T01:41:41.642Z,9.37
2019-04-26T01:44:22.755Z,9.83
2019-04-26T01:46:53.690Z,8.37
2019-04-26T01:49:24.958Z,9.10
2019-04-26T01:52:09.511Z,9.37
2019-04-26T01:54:43.418Z,8.90
2019-04-26T01:57:15.405Z,8.63
2019-04-26T01:59:51.854Z,9.07
2019-04-26T02:02:32.204Z,8.90
2019-04-26T02:05:06.388Z,8.40
2019-04-26T02:07:41.063Z,9.00
2019-04-26T02:10:17.646Z,9.63
2019-04-26T02:12:49.859Z,8.50
2019-04-26T02:15:24.452Z,9.03
2019-04-26T02:17:58.261Z,8.53
2019-04-26T02:20:51.946Z,9.20
2019-04-26T02:23:28.184Z,8.60
2019-04-26T02:26:03.973Z,9.53
2019-04-26T02:28:34.576Z,8.93
2019-04-26T02:31:06.639Z,8.23
2019-04-26T02:33:37.380Z,9.73
2019-04-26T02:36:08.107Z,9.50
2019-04-26T02:38:38.678Z,9.43
2019-04-26T02:41:09.373Z,9.30
2019-04-26T02:43:43.093Z,10.33
2019-04-26T02:46:21.567Z,9.37
2019-04-26T02:49:21.653Z,9.27
2019-04-26T02:52:32.005Z,10.83
2019-04-26T02:55:15.382Z,9.10
2019-04-26T02:57:51.912Z,10.13
2019-04-26T03:00:22.450Z,9.80
2019-04-26T03:03:01.310Z,10.13
2019-04-26T03:05:37.492Z,9.43
2019-04-26T03:08:15.355Z,9.73
2019-04-26T03:10:57.884Z,10.10
2019-04-26T03:13:56.586Z,10.30
2019-04-26T03:17:08.046Z,10.33
2019-04-26T03:19:58.474Z,11.10
2019-04-26T03:22:54.492Z,10.77
2019-04-26T03:25:57.939Z,11.20
2019-04-26T03:28:43.449Z,12.23
2019-04-26T03:32:02.511Z,12.07
2019-04-26T03:34:54.059Z,12.80
2019-04-26T03:37:58.993Z,13.47
2019-04-26T03:40:51.769Z,13.90
2019-04-26T03:43:49.917Z,13.00
2019-04-26T03:46:46.209Z,14.33
2019-04-26T03:49:39.240Z,13.93
2019-04-26T03:52:45.617Z,13.50
2019-04-26T03:56:06.689Z,13.07
2019-04-26T03:59:22.664Z,12.07
2019-04-26T04:02:09.831Z,13.53
2019-04-26T04:04:53.785Z,12.57
2019-04-26T04:07:37.122Z,12.50
2019-04-26T04:10:05.935Z,11.30
2019-04-26T04:12:58.736Z,12.33
2019-04-26T04:15:42.561Z,12.43
2019-04-26T04:18:19.954Z,13.50
2019-04-26T04:21:31.878Z,11.67
2019-04-26T04:24:09.471Z,12.60
2019-04-26T04:27:03.424Z,12.50
2019-04-26T04:30:06.936Z,11.10
2019-04-26T04:33:43.613Z,9.67
2019-04-26T04:36:23.211Z,10.80
2019-04-26T04:39:12.450Z,10.23
2019-04-26T04:42:17.754Z,9.43
2019-04-26T04:45:26.271Z,9.10
2019-04-26T04:48:24.526Z,8.73
2019-04-26T04:51:17.430Z,9.20
2019-04-26T04:53:56.843Z,8.67
2019-04-26T04:57:02.880Z,9.57
2019-04-26T04:59:54.269Z,9.25
2019-04-26T05:02:50.794Z,10.28
2019-04-26T05:06:07.445Z,10.47
2019-04-26T05:09:14.685Z,9.48
2019-04-26T05:12:05.479Z,8.75
2019-04-26T05:15:09.344Z,8.98
2019-04-26T05:18:07.160Z,8.78
2019-04-26T05:20:45.936Z,9.15
2019-04-26T05:23:40.553Z,8.30
2019-04-26T05:27:10.060Z,8.53
2019-04-26T05:30:29.358Z,8.53
2019-04-26T05:33:15.026Z,9.45
2019-04-26T05:36:29.380Z,8.63
2019-04-26T05:39:11.779Z,8.65
2019-04-26T05:42:41.696Z,8.25
2019-04-26T05:46:19.775Z,7.97
2019-04-26T05:49:33.606Z,8.40
2019-04-26T05:52:40.729Z,8.40
2019-04-26T05:55:36.773Z,8.53
2019-04-26T05:58:46.474Z,6.95
2019-04-26T06:02:12.326Z,7.95
2019-04-26T06:05:41.855Z,8.03
2019-04-26T06:09:03.762Z,7.35
2019-04-26T06:11:43.799Z,8.58
2019-04-26T06:14:36.883Z,8.43
2019-04-26T06:17:39.948Z,7.80
2019-04-26T06:20:30.673Z,8.95
2019-04-26T06:23:16.517Z,9.75
2019-04-26T06:26:06.915Z,8.70
2019-04-26T06:29:05.365Z,8.48
2019-04-26T06:31:47.533Z,8.73
2019-04-26T06:34:43.413Z,8.85
2019-04-26T06:37:44.071Z,7.58
2019-04-26T06:40:22.775Z,9.00
2019-04-26T06:43:37.056Z,8.95
2019-04-26T06:46:49.805Z,8.25
2019-04-26T06:49:40.159Z,9.38
2019-04-26T06:52:16.358Z,8.08
2019-04-26T06:55:37.451Z,7.50
2019-04-26T06:58:52.802Z,7.50
2019-04-26T07:01:38.402Z,6.90
2019-04-26T07:04:47.703Z,7.70
2019-04-26T07:07:59.479Z,7.40
2019-04-26T07:11:04.878Z,7.85
2019-04-26T07:14:11.521Z,8.20
2019-04-26T07:17:01.087Z,7.12
2019-04-26T07:20:02.756Z,7.40
2019-04-26T07:22:59.369Z,6.70
2019-04-26T07:26:04.163Z,7.50
2019-04-26T07:29:29.908Z,7.40
2019-04-26T07:32:18.367Z,6.83
2019-04-26T07:35:24.411Z,7.67
2019-04-26T07:39:09.108Z,8.40
2019-04-26T07:42:27.509Z,7.87
2019-04-26T07:45:24.365Z,6.00
2019-04-26T07:48:47.028Z,6.93
2019-04-26T07:51:57.081Z,5.97
2019-04-26T07:55:15.921Z,5.00
2019-04-26T07:58:22.918Z,6.10
2019-04-26T08:01:15.225Z,4.73
2019-04-26T08:03:57.033Z,5.20
2019-04-26T08:06:45.814Z,5.23
2019-04-26T08:09:26.756Z,4.70
2019-04-26T08:11:53.450Z,4.60
2019-04-26T08:14:51.388Z,4.43
2019-04-26T08:17:53.966Z,4.67
2019-04-26T08:20:39.865Z,4.30
2019-04-26T08:23:34.987Z,4.17
2019-04-26T08:25:47.730Z,4.57
2019-04-26T08:28:20.421Z,4.53
2019-04-26T08:30:56.723Z,4.73
2019-04-26T08:33:35.479Z,4.73
2019-04-26T08:36:10.559Z,4.70
2019-04-26T08:38:42.137Z,5.90
2019-04-26T08:41:13.472Z,4.50
2019-04-26T08:44:12.691Z,4.67
2019-04-26T08:47:15.019Z,4.77
2019-04-26T08:50:01.533Z,4.97
2019-04-26T08:52:44.140Z,4.17
2019-04-26T08:55:18.691Z,5.93
2019-04-26T08:57:52.058Z,4.37
2019-04-26T09:00:49.889Z,4.53
2019-04-26T09:03:45.207Z,5.00
2019-04-26T09:06:27.272Z,5.30
2019-04-26T09:09:00.162Z,4.83
2019-04-26T09:11:35.028Z,4.97
2019-04-26T09:14:07.869Z,4.53
2019-04-26T09:16:49.789Z,4.30
2019-04-26T09:19:11.813Z,4.90
2019-04-26T09:21:54.581Z,4.40
2019-04-26T09:24:36.810Z,4.77
2019-04-26T09:27:38.363Z,4.80
2019-04-26T09:30:14.086Z,4.43
2019-04-26T09:33:03.234Z,4.47
2019-04-26T09:35:33.993Z,4.40
2019-04-26T09:38:04.637Z,4.33
2019-04-26T09:40:35.300Z,5.07
2019-04-26T09:43:33.756Z,4.07
2019-04-26T09:46:26.358Z,4.33
2019-04-26T09:49:07.090Z,4.43
2019-04-26T09:51:39.048Z,4.63
2019-04-26T09:54:09.380Z,5.00
2019-04-26T09:56:39.958Z,4.70
2019-04-26T09:59:10.650Z,4.13
2019-04-26T10:01:41.245Z,4.87
2019-04-26T10:04:11.835Z,4.87
2019-04-26T10:06:42.464Z,4.27
2019-04-26T10:09:17.197Z,4.13
2019-04-26T10:11:54.269Z,4.67
2019-04-26T10:14:35.268Z,5.00
2019-04-26T10:17:24.710Z,4.60
2019-04-26T10:19:57.232Z,4.77
2019-04-26T10:22:30.823Z,5.20
2019-04-26T10:25:02.546Z,4.90
2019-04-26T10:27:36.453Z,4.53
2019-04-26T10:30:09.503Z,3.70
2019-04-26T10:32:41.355Z,4.00
2019-04-26T10:35:12.017Z,3.67
2019-04-26T10:37:43.871Z,3.97
2019-04-26T10:40:14.890Z,4.23
2019-04-26T10:42:45.646Z,3.93
2019-04-26T10:45:16.944Z,4.40
2019-04-26T10:47:47.593Z,3.43
2019-04-26T10:50:18.532Z,3.75
2019-04-26T10:53:11.209Z,3.67
2019-04-26T10:55:59.761Z,3.40
2019-04-26T10:58:51.494Z,3.67
2019-04-26T11:01:22.164Z,3.37
2019-04-26T11:03:52.938Z,3.45
2019-04-26T11:06:24.138Z,2.70
2019-04-26T11:08:56.203Z,3.27
2019-04-26T11:11:26.758Z,3.50
2019-04-26T11:13:57.598Z,3.33
2019-04-26T11:16:28.280Z,2.97
2019-04-26T11:19:01.244Z,3.47
2019-04-26T11:21:31.170Z,3.37
2019-04-26T11:24:01.802Z,3.33
2019-04-26T11:26:34.701Z,3.02
2019-04-26T11:29:04.964Z,3.30
2019-04-26T11:31:35.638Z,2.80
2019-04-26T11:34:06.289Z,3.30
2019-04-26T11:36:37.556Z,3.72
2019-04-26T11:39:11.568Z,2.83
2019-04-26T11:41:42.696Z,3.02
2019-04-26T11:44:13.453Z,3.30
2019-04-26T11:46:45.222Z,2.62
2019-04-26T11:49:16.068Z,2.50
2019-04-26T11:51:46.708Z,2.70
2019-04-26T11:54:20.797Z,3.35
2019-04-26T11:56:50.469Z,3.60
2019-04-26T11:59:22.331Z,2.90
2019-04-26T12:01:52.891Z,3.30
2019-04-26T12:04:41.060Z,2.72
2019-04-26T12:07:32.824Z,2.60
2019-04-26T12:10:05.806Z,2.62
2019-04-26T12:12:36.959Z,2.90
2019-04-26T12:15:08.441Z,2.92
2019-04-26T12:17:39.999Z,2.80
2019-04-26T12:20:11.105Z,2.53
2019-04-26T12:22:43.266Z,2.67
2019-04-26T12:25:14.413Z,3.15
2019-04-26T12:27:45.262Z,2.50
2019-04-26T12:30:16.292Z,2.45
2019-04-26T12:32:46.878Z,2.60
2019-04-26T12:35:17.357Z,2.30
2019-04-26T12:37:50.708Z,2.33
2019-04-26T12:40:21.169Z,2.50
2019-04-26T12:42:51.810Z,3.95
2019-04-26T12:45:56.639Z,2.90
2019-04-26T12:48:27.272Z,2.42
2019-04-26T12:50:59.265Z,2.70
2019-04-26T12:53:31.185Z,3.15
2019-04-26T12:56:02.091Z,2.27
2019-04-26T12:58:32.836Z,2.70
2019-04-26T13:01:03.506Z,3.27
2019-04-26T13:03:34.044Z,3.15
2019-04-26T13:06:04.715Z,2.50
2019-04-26T13:08:35.286Z,2.45
2019-04-26T13:11:24.810Z,3.00
2019-04-26T13:14:07.610Z,2.50
2019-04-26T13:16:46.346Z,2.72
2019-04-26T13:19:19.886Z,2.58
2019-04-26T13:21:49.853Z,2.93
2019-04-26T13:24:20.515Z,2.97
2019-04-26T13:26:51.129Z,2.57
2019-04-26T13:29:21.708Z,3.45
2019-04-26T13:31:52.385Z,2.80
2019-04-26T13:34:23.093Z,2.87
2019-04-26T13:36:53.689Z,3.20
2019-04-26T13:39:24.312Z,3.08
2019-04-26T13:42:02.901Z,5.17
2019-04-26T13:44:46.247Z,3.42
2019-04-26T13:47:42.033Z,3.70
2019-04-26T13:50:26.566Z,3.20
2019-04-26T13:52:58.107Z,3.12
2019-04-26T13:55:29.444Z,3.55
2019-04-26T13:58:01.293Z,3.27
2019-04-26T14:00:33.160Z,3.92
2019-04-26T14:03:04.729Z,2.75
2019-04-26T14:05:37.846Z,4.15
2019-04-26T14:08:08.457Z,3.77
2019-04-26T14:10:39.221Z,5.40
2019-04-26T14:13:09.757Z,3.40
2019-04-26T14:15:43.651Z,3.90
2019-04-26T14:18:12.468Z,4.70
2019-04-26T14:20:42.928Z,3.52
2019-04-26T14:23:45.242Z,3.62
2019-04-26T14:26:21.729Z,4.67
2019-04-26T14:28:54.229Z,3.47
2019-04-26T14:31:24.603Z,4.42
2019-04-26T14:33:55.445Z,4.60
2019-04-26T14:36:26.768Z,4.65
2019-04-26T14:39:05.718Z,3.75
2019-04-26T14:41:30.675Z,4.33
2019-04-26T14:44:14.450Z,3.67
2019-04-26T14:46:33.548Z,4.60
2019-04-26T14:49:05.749Z,4.58
2019-04-26T14:51:36.461Z,4.83
2019-04-26T14:54:11.014Z,6.63
2019-04-26T14:56:51.710Z,5.43
2019-04-26T14:59:12.204Z,5.03
2019-04-26T15:01:57.285Z,5.42
2019-04-26T15:05:02.567Z,5.23
2019-04-26T15:07:32.531Z,5.20
2019-04-26T15:10:06.868Z,4.27
2019-04-26T15:12:45.899Z,5.60
2019-04-26T15:15:08.154Z,5.07
2019-04-26T15:17:38.828Z,4.63
2019-04-26T15:20:09.497Z,5.70
2019-04-26T15:22:46.296Z,5.40
2019-04-26T15:25:12.765Z,5.83
2019-04-26T15:27:44.210Z,4.77
2019-04-26T15:30:15.989Z,5.60
2019-04-26T15:32:46.543Z,5.12
2019-04-26T15:35:18.040Z,4.87
2019-04-26T15:37:48.793Z,5.10
2019-04-26T15:40:53.785Z,5.37
2019-04-26T15:43:35.198Z,4.93
2019-04-26T15:46:17.653Z,5.63
2019-04-26T15:49:19.391Z,5.80
2019-04-26T15:51:49.934Z,4.90
2019-04-26T15:54:21.641Z,5.83
2019-04-26T15:56:53.750Z,11.40
2019-04-26T15:59:25.805Z,6.17
2019-04-26T16:01:56.547Z,7.73
2019-04-26T16:04:27.304Z,5.97
2019-04-26T16:07:02.252Z,5.30
2019-04-26T16:09:32.919Z,6.50
2019-04-26T16:12:03.835Z,6.57
2019-04-26T16:14:36.742Z,6.87
2019-04-26T16:17:07.121Z,5.70
2019-04-26T16:19:37.742Z,6.20
2019-04-26T16:22:08.381Z,6.37
2019-04-26T16:24:39.035Z,5.83
2019-04-26T16:27:09.538Z,12.47
2019-04-26T16:29:59.674Z,13.43
2019-04-26T16:32:47.168Z,7.73
2019-04-26T16:35:18.213Z,5.83
2019-04-26T16:37:48.007Z,30.03
2019-04-26T16:40:18.809Z,36.53
2019-04-26T16:42:54.669Z,14.00
2019-04-26T16:45:22.691Z,8.77
2019-04-26T16:47:53.326Z,7.43
2019-04-26T16:50:31.436Z,6.90
2019-04-26T16:52:57.035Z,6.13
2019-04-26T16:55:27.561Z,6.57
2019-04-26T16:58:04.446Z,6.97
2019-04-26T17:00:50.170Z,7.37
2019-04-26T17:03:08.605Z,6.90
2019-04-26T17:05:47.603Z,6.07
2019-04-26T17:08:12.974Z,6.30
2019-04-26T17:10:45.206Z,5.47
2019-04-26T17:13:15.833Z,6.70
2019-04-26T17:15:53.453Z,6.30
2019-04-26T17:18:23.892Z,6.70
2019-04-26T17:20:53.920Z,6.43
2019-04-26T17:23:34.261Z,6.80
2019-04-26T17:26:15.027Z,6.83
2019-04-26T17:28:45.617Z,6.20
2019-04-26T17:31:16.481Z,6.43
2019-04-26T17:33:48.144Z,9.23
2019-04-26T17:36:18.821Z,16.27
2019-04-26T17:38:50.565Z,32.70
2019-04-26T17:41:25.831Z,49.43
2019-04-26T17:44:08.418Z,67.83
2019-04-26T17:46:28.596Z,73.97
2019-04-26T17:49:00.506Z,59.53
2019-04-26T17:51:39.500Z,55.30
2019-04-26T17:54:25.414Z,31.63
2019-04-26T17:56:39.427Z,17.77
2019-04-26T17:59:09.176Z,14.90
2019-04-26T18:01:47.398Z,14.53
2019-04-26T18:04:13.479Z,12.57
2019-04-26T18:06:45.459Z,10.43
2019-04-26T18:09:38.028Z,8.23
2019-04-26T18:11:48.979Z,7.63
2019-04-26T18:14:21.676Z,10.73
2019-04-26T18:17:01.335Z,8.17
2019-04-26T18:19:42.976Z,7.80
2019-04-26T18:22:21.182Z,7.40
2019-04-26T18:24:51.767Z,7.83
2019-04-26T18:27:23.968Z,8.47
2019-04-26T18:29:54.707Z,8.97
2019-04-26T18:32:25.412Z,8.93
2019-04-26T18:34:57.944Z,7.43
2019-04-26T18:37:28.503Z,7.00
2019-04-26T18:40:02.017Z,7.27
2019-04-26T18:42:33.493Z,6.53
2019-04-26T18:45:05.799Z,7.00
2019-04-26T18:47:39.745Z,7.50
2019-04-26T18:50:10.886Z,7.60
2019-04-26T18:52:52.671Z,7.33
2019-04-26T18:55:29.195Z,8.60
2019-04-26T18:58:03.622Z,8.23
2019-04-26T19:00:35.639Z,7.93
2019-04-26T19:03:06.889Z,9.37
2019-04-26T19:05:37.798Z,8.83
2019-04-26T19:08:10.048Z,8.57
2019-04-26T19:10:43.570Z,9.27
2019-04-26T19:13:39.040Z,8.57
2019-04-26T19:16:31.937Z,10.90
2019-04-26T19:19:07.975Z,8.80
2019-04-26T19:21:42.039Z,8.93
2019-04-26T19:24:19.509Z,8.50
2019-04-26T19:26:50.002Z,9.20
2019-04-26T19:29:27.044Z,9.23
2019-04-26T19:31:52.256Z,9.90
2019-04-26T19:34:26.052Z,9.53
2019-04-26T19:36:56.359Z,9.67
2019-04-26T19:39:32.290Z,9.47
2019-04-26T19:42:02.473Z,9.23
2019-04-26T19:44:34.951Z,8.20
2019-04-26T19:47:44.167Z,9.07
2019-04-26T19:50:42.322Z,9.07
2019-04-26T19:53:21.272Z,8.40
2019-04-26T19:56:11.655Z,9.17
2019-04-26T19:58:42.510Z,8.73
2019-04-26T20:01:16.618Z,7.97
2019-04-26T20:03:47.349Z,9.00
2019-04-26T20:06:19.023Z,8.63
2019-04-26T20:08:51.955Z,9.70
2019-04-26T20:11:23.888Z,15.43
2019-04-26T20:13:55.856Z,8.80
2019-04-26T20:16:28.343Z,9.33
2019-04-26T20:18:58.935Z,8.87
2019-04-26T20:21:32.080Z,9.03
2019-04-26T20:24:01.998Z,9.63
2019-04-26T20:26:32.635Z,9.17
2019-04-26T20:29:06.237Z,9.47
2019-04-26T20:31:47.596Z,9.40
2019-04-26T20:34:18.149Z,9.20
2019-04-26T20:36:47.806Z,9.47
2019-04-26T20:39:21.093Z,9.00
2019-04-26T20:42:00.646Z,9.53
2019-04-26T20:44:28.860Z,8.87
2019-04-26T20:46:59.011Z,11.07
2019-04-26T20:49:29.608Z,9.60
2019-04-26T20:52:00.029Z,9.97
2019-04-26T20:54:31.572Z,11.03
2019-04-26T20:57:02.346Z,9.73
2019-04-26T20:59:33.051Z,9.47
2019-04-26T21:02:07.876Z,9.67
2019-04-26T21:04:38.471Z,10.43
2019-04-26T21:07:11.448Z,9.93
2019-04-26T21:09:43.422Z,9.80
2019-04-26T21:12:18.223Z,10.03
2019-04-26T21:14:47.480Z,9.90
2019-04-26T21:17:19.345Z,8.77
2019-04-26T21:19:54.916Z,9.70
2019-04-26T21:22:28.413Z,10.93
2019-04-26T21:25:04.364Z,9.93
2019-04-26T21:27:46.714Z,10.50
2019-04-26T21:30:38.583Z,10.60
2019-04-26T21:33:28.816Z,10.87
2019-04-26T21:36:25.292Z,9.47
2019-04-26T21:39:13.760Z,9.20
2019-04-26T21:41:48.293Z,9.47
2019-04-26T21:44:18.063Z,10.80
2019-04-26T21:46:55.902Z,9.93
2019-04-26T21:49:24.403Z,9.90
2019-04-26T21:51:54.990Z,10.63
2019-04-26T21:54:25.540Z,10.20
2019-04-26T21:56:57.227Z,10.33
2019-04-26T21:59:27.738Z,9.67
2019-04-26T22:01:59.237Z,9.63
2019-04-26T22:04:34.117Z,9.10
2019-04-26T22:07:05.138Z,10.33
2019-04-26T22:09:52.880Z,10.57
2019-04-26T22:12:27.384Z,9.83
2019-04-26T22:15:13.851Z,10.33
2019-04-26T22:17:46.853Z,10.17
2019-04-26T22:20:30.676Z,9.33
2019-04-26T22:23:21.355Z,9.23
2019-04-26T22:25:52.052Z,9.83
2019-04-26T22:28:23.535Z,9.47
2019-04-26T22:31:06.842Z,9.40
2019-04-26T22:33:34.106Z,8.73
2019-04-26T22:36:06.684Z,10.30
2019-04-26T22:38:37.319Z,9.23
2019-04-26T22:41:10.412Z,8.97
2019-04-26T22:44:07.488Z,7.70
2019-04-26T22:46:58.874Z,7.27
2019-04-26T22:49:27.553Z,7.43
2019-04-26T22:51:58.864Z,7.27
2019-04-26T22:54:29.479Z,7.67
2019-04-26T22:57:03.797Z,7.87
2019-04-26T22:59:33.991Z,6.87
2019-04-26T23:02:06.867Z,7.30
2019-04-26T23:04:37.759Z,6.70
2019-04-26T23:07:10.960Z,7.37
2019-04-26T23:09:47.447Z,7.63
2019-04-26T23:12:41.548Z,8.03
2019-04-26T23:15:43.136Z,7.80
2019-04-26T23:18:33.493Z,8.50
2019-04-26T23:21:07.762Z,8.37
2019-04-26T23:23:40.961Z,8.87
2019-04-26T23:26:12.905Z,9.70
2019-04-26T23:28:43.988Z,9.17
2019-04-26T23:31:14.580Z,8.57
2019-04-26T23:33:45.228Z,9.43
2019-04-26T23:36:18.349Z,9.60
2019-04-26T23:38:47.932Z,9.63
2019-04-26T23:41:18.481Z,9.90
2019-04-26T23:43:49.142Z,9.53
2019-04-26T23:46:22.872Z,9.73
2019-04-26T23:48:53.727Z,10.23
2019-04-26T23:51:26.250Z,10.20
2019-04-26T23:53:58.247Z,9.60
2019-04-26T23:56:30.775Z,10.93
2019-04-26T23:59:01.334Z,10.23
